Victor, West Virginia
Current Conditions -  °F | °C
As of 12:51 AM on Tuesday 27 Jan 2015 (Local Time) from KBKW Reporting Station
Light Snow Light Snow  
Wind Chill:   Ceiling: 1600
Heat Index: 20°   Visibility: 3mi
Dew Point: 15°   Wind: 9mph
Humidity: 81%   Direction: 290°WNW
Pressure: 29.78"   Gusts: NA
Location:  38.13°N, 81.08°W
Report Text: KBKW 270551Z AUTO 29008KT 3SM -SN OVC016 M07/M09 A2978 RMK AO2 SNE09B26 SLP115 P0000 60000 I6001 T10671094 11050 21067 58003
Loading
Personal Weather Stations






























Interactive Weather Map New forecast layout! Learn more

10-Day Weather Forecast

Advertisements
Track Severe Weather on mobile